Time;durP1;ratioP1;P1;durP2;ratioP2;P2;SDS_P1;SDS_P2;PMS_P1;PMS_P2;Temp;Humidity;BMP_temperature;BMP_pressure;BME280_temperature;BME280_humidity;BME280_pressure;Samples;Min_cycle;Max_cycle;Signal;HPM_P1;HPM_P2
2022/02/17 00:00:33;;;;;;;;;;;13.50;99.90;;;;;;5078021;28;19916;-77
2022/02/17 00:02:59;;;;;;;;;;;13.50;99.90;;;;;;5066106;28;19909;-77
2022/02/17 00:05:25;;;;;;;;;;;13.50;99.90;;;;;;5062885;28;21311;-77
2022/02/17 00:07:50;;;;;;;;;;;13.50;99.90;;;;;;5061183;28;19909;-77
2022/02/17 00:10:17;;;;;;;;;;;13.50;99.90;;;;;;5056790;28;19917;-77
2022/02/17 00:12:43;;;;;;;;;;;13.50;99.90;;;;;;5076140;28;19916;-77
2022/02/17 00:15:08;;;;;;;;;;;13.40;99.90;;;;;;5056363;28;19916;-77
2022/02/17 00:17:35;;;;;;;;;;;13.40;99.90;;;;;;5063712;28;19912;-77
2022/02/17 00:20:01;;;;;;;;;;;13.40;99.90;;;;;;5076641;28;19908;-77
2022/02/17 00:22:26;;;;;;;;;;;13.40;99.90;;;;;;5077073;28;20426;-77
2022/02/17 00:24:52;;;;;;;;;;;13.40;99.90;;;;;;5065766;28;19935;-77
2022/02/17 00:27:18;;;;;;;;;;;13.30;99.90;;;;;;5066204;28;19916;-77
2022/02/17 00:29:43;;;;;;;;;;;13.30;99.90;;;;;;5070874;28;19908;-77
2022/02/17 00:32:10;;;;;;;;;;;13.30;99.90;;;;;;5074707;28;19909;-76
2022/02/17 00:34:35;;;;;;;;;;;13.40;99.90;;;;;;5066949;28;19917;-76
2022/02/17 00:37:03;;;;;;;;;;;13.40;99.90;;;;;;5065141;28;19913;-76
2022/02/17 00:39:32;;;;;;;;;;;13.30;99.90;;;;;;5066512;28;19908;-76
2022/02/17 00:41:58;;;;;;;;;;;13.30;99.90;;;;;;5064218;28;19919;-76
2022/02/17 00:44:24;;;;;;;;;;;13.30;99.90;;;;;;5068814;28;20363;-76
2022/02/17 00:46:50;;;;;;;;;;;13.30;99.90;;;;;;5071867;28;20007;-76
2022/02/17 00:49:15;;;;;;;;;;;13.30;99.90;;;;;;5069910;28;19908;-77
2022/02/17 00:51:41;;;;;;;;;;;13.30;99.90;;;;;;5066393;28;19969;-76
2022/02/17 00:54:07;;;;;;;;;;;13.30;99.90;;;;;;5067010;28;19912;-76
2022/02/17 00:56:33;;;;;;;;;;;13.20;99.90;;;;;;5061535;28;19918;-77
2022/02/17 00:58:58;;;;;;;;;;;13.20;99.90;;;;;;5064283;28;19909;-77
2022/02/17 01:01:24;;;;;;;;;;;13.20;99.90;;;;;;5063170;28;20283;-77
2022/02/17 01:03:50;;;;;;;;;;;13.10;99.90;;;;;;5065108;28;19912;-76
2022/02/17 01:06:15;;;;;;;;;;;13.00;99.30;;;;;;5067390;28;19908;-76
2022/02/17 01:08:41;;;;;;;;;;;13.00;99.30;;;;;;5057523;28;19909;-76
2022/02/17 01:11:07;;;;;;;;;;;12.90;99.40;;;;;;5066741;28;19908;-77
2022/02/17 01:13:33;;;;;;;;;;;12.80;99.30;;;;;;5076257;28;20003;-77
2022/02/17 01:15:58;;;;;;;;;;;12.80;99.20;;;;;;5076875;28;20294;-76
2022/02/17 01:18:24;;;;;;;;;;;12.70;99.00;;;;;;5067406;28;19913;-76
2022/02/17 01:20:50;;;;;;;;;;;12.70;98.70;;;;;;5062977;28;20364;-76
2022/02/17 01:23:16;;;;;;;;;;;12.70;98.00;;;;;;5072179;28;19952;-77
2022/02/17 01:25:42;;;;;;;;;;;12.60;97.80;;;;;;5064445;28;19916;-76
2022/02/17 01:28:08;;;;;;;;;;;12.60;97.00;;;;;;5061529;28;19975;-76
2022/02/17 01:30:34;;;;;;;;;;;12.60;96.00;;;;;;5067808;28;20405;-76
2022/02/17 01:33:00;;;;;;;;;;;12.60;95.70;;;;;;5075585;28;19931;-76
2022/02/17 01:35:25;;;;;;;;;;;12.60;95.60;;;;;;5076696;28;19913;-76
2022/02/17 01:37:51;;;;;;;;;;;12.50;95.50;;;;;;5072731;28;19916;-76
2022/02/17 01:40:19;;;;;;;;;;;12.50;95.40;;;;;;5064803;28;19920;-76
2022/02/17 01:42:46;;;;;;;;;;;12.40;95.50;;;;;;5065273;28;19909;-76
2022/02/17 01:45:12;;;;;;;;;;;12.40;95.80;;;;;;5062550;28;19920;-76
2022/02/17 01:47:37;;;;;;;;;;;12.30;95.80;;;;;;5077251;28;20007;-76
2022/02/17 01:50:04;;;;;;;;;;;12.20;95.90;;;;;;5081335;28;19992;-76
2022/02/17 01:52:30;;;;;;;;;;;12.20;95.90;;;;;;5071774;28;20299;-76
2022/02/17 01:54:56;;;;;;;;;;;12.20;95.90;;;;;;5065869;28;19913;-76
2022/02/17 01:57:26;;;;;;;;;;;12.10;95.70;;;;;;5063248;28;19913;-76
2022/02/17 01:59:52;;;;;;;;;;;12.10;95.40;;;;;;5072688;28;19909;-77
2022/02/17 02:02:18;;;;;;;;;;;12.00;95.30;;;;;;5076332;28;19954;-76
2022/02/17 02:04:44;;;;;;;;;;;12.00;95.40;;;;;;5071519;28;19909;-76
2022/02/17 02:07:10;;;;;;;;;;;11.90;95.40;;;;;;5060499;28;19915;-76
2022/02/17 02:09:36;;;;;;;;;;;11.90;95.40;;;;;;5073453;28;19936;-76
2022/02/17 02:12:02;;;;;;;;;;;11.80;95.40;;;;;;5067557;28;19948;-76
2022/02/17 02:14:27;;;;;;;;;;;11.80;95.50;;;;;;5074118;28;20393;-76
2022/02/17 02:16:54;;;;;;;;;;;11.80;95.70;;;;;;5075454;28;19999;-76
2022/02/17 02:19:20;;;;;;;;;;;11.80;95.60;;;;;;5066904;28;19920;-76
2022/02/17 02:21:45;;;;;;;;;;;11.90;95.50;;;;;;5060434;28;19915;-76
2022/02/17 02:24:11;;;;;;;;;;;12.00;95.50;;;;;;5073607;28;19912;-77
2022/02/17 02:26:37;;;;;;;;;;;12.00;95.60;;;;;;5074594;28;20393;-76
2022/02/17 02:29:02;;;;;;;;;;;12.10;95.50;;;;;;5074266;28;19996;-76
2022/02/17 02:31:28;;;;;;;;;;;12.10;95.30;;;;;;5079145;28;19909;-76
2022/02/17 02:33:54;;;;;;;;;;;12.10;95.30;;;;;;5080178;28;20371;-76
2022/02/17 02:36:19;;;;;;;;;;;12.00;95.60;;;;;;5069325;28;19913;-77
2022/02/17 02:38:45;;;;;;;;;;;12.00;95.20;;;;;;5073047;28;19963;-76
2022/02/17 02:41:11;;;;;;;;;;;12.00;95.20;;;;;;5069356;28;19908;-76
2022/02/17 02:43:37;;;;;;;;;;;11.90;95.10;;;;;;5079483;28;19908;-76
2022/02/17 02:46:03;;;;;;;;;;;12.00;95.20;;;;;;5080385;28;19962;-76
2022/02/17 02:48:28;;;;;;;;;;;11.90;95.20;;;;;;5068697;28;19909;-76
2022/02/17 02:50:54;;;;;;;;;;;11.90;95.30;;;;;;5070214;28;20371;-76
2022/02/17 02:53:20;;;;;;;;;;;11.90;95.40;;;;;;5073748;28;19916;-76
2022/02/17 02:55:48;;;;;;;;;;;11.90;95.50;;;;;;5068488;28;19913;-77
2022/02/17 02:58:14;;;;;;;;;;;11.80;95.60;;;;;;5064975;28;19915;-76
2022/02/17 03:00:44;;;;;;;;;;;11.80;95.70;;;;;;5062094;28;19908;-76
2022/02/17 03:03:10;;;;;;;;;;;11.80;95.90;;;;;;5074041;28;20280;-76
2022/02/17 03:05:35;;;;;;;;;;;11.80;95.90;;;;;;5073240;28;20024;-77
2022/02/17 03:08:01;;;;;;;;;;;11.90;95.80;;;;;;5065330;28;19956;-76
2022/02/17 03:10:28;;;;;;;;;;;11.90;95.70;;;;;;5064999;28;19909;-76
2022/02/17 03:12:54;;;;;;;;;;;11.90;95.30;;;;;;5079373;28;20640;-76
2022/02/17 03:15:20;;;;;;;;;;;11.90;95.20;;;;;;5072261;28;20034;-76
2022/02/17 03:17:46;;;;;;;;;;;11.90;94.80;;;;;;5078013;28;19908;-76
2022/02/17 03:20:12;;;;;;;;;;;11.90;94.70;;;;;;5078935;28;20042;-76
2022/02/17 03:22:38;;;;;;;;;;;11.90;94.70;;;;;;5078630;28;19952;-76
2022/02/17 03:25:04;;;;;;;;;;;11.90;94.30;;;;;;5079232;28;19908;-76
2022/02/17 03:27:30;;;;;;;;;;;11.90;94.10;;;;;;5079416;28;19909;-76
2022/02/17 03:29:55;;;;;;;;;;;11.80;94.10;;;;;;5077700;28;19909;-76
2022/02/17 03:32:21;;;;;;;;;;;11.80;94.10;;;;;;5066391;28;19909;-76
2022/02/17 03:34:47;;;;;;;;;;;11.80;94.20;;;;;;5064074;28;20257;-77
2022/02/17 03:37:12;;;;;;;;;;;11.70;94.30;;;;;;5058663;28;20402;-76
2022/02/17 03:39:38;;;;;;;;;;;11.70;94.30;;;;;;5071972;28;19912;-76
2022/02/17 03:42:05;;;;;;;;;;;11.60;94.50;;;;;;5057911;28;19909;-76
2022/02/17 03:44:30;;;;;;;;;;;11.60;94.70;;;;;;5059006;28;19917;-76
2022/02/17 03:46:56;;;;;;;;;;;11.60;94.80;;;;;;5067994;28;21078;-76
2022/02/17 03:49:23;;;;;;;;;;;11.60;95.00;;;;;;5078957;28;19915;-76
2022/02/17 03:51:49;;;;;;;;;;;11.60;94.80;;;;;;5069331;28;19908;-77
2022/02/17 03:54:15;;;;;;;;;;;11.60;94.80;;;;;;5058782;28;19916;-76
2022/02/17 03:56:41;;;;;;;;;;;11.60;94.10;;;;;;5072249;28;19913;-76
2022/02/17 03:59:08;;;;;;;;;;;11.60;93.70;;;;;;5073873;28;20055;-75
2022/02/17 04:01:34;;;;;;;;;;;11.50;93.20;;;;;;5078787;28;19916;-76
2022/02/17 04:04:00;;;;;;;;;;;11.50;92.70;;;;;;5078923;28;19909;-76
2022/02/17 04:06:26;;;;;;;;;;;11.50;92.70;;;;;;5077872;28;19912;-76
2022/02/17 04:08:52;;;;;;;;;;;11.40;92.40;;;;;;5078261;28;19955;-76
2022/02/17 04:11:17;;;;;;;;;;;11.30;92.60;;;;;;5072023;28;19912;-76
2022/02/17 04:13:43;;;;;;;;;;;11.30;92.40;;;;;;5071966;28;19958;-76
2022/02/17 04:16:09;;;;;;;;;;;11.30;92.30;;;;;;5077389;28;20441;-76
2022/02/17 04:18:35;;;;;;;;;;;11.20;92.40;;;;;;5072247;28;19913;-76
2022/02/17 04:21:01;;;;;;;;;;;11.20;92.50;;;;;;5077682;28;19913;-76
2022/02/17 04:23:27;;;;;;;;;;;11.10;92.60;;;;;;5077917;28;20381;-76
2022/02/17 04:25:52;;;;;;;;;;;11.10;92.80;;;;;;5077273;28;19956;-76
2022/02/17 04:28:18;;;;;;;;;;;11.00;92.70;;;;;;5078425;28;20005;-76
2022/02/17 04:30:44;;;;;;;;;;;11.00;92.70;;;;;;5078068;28;19919;-76
2022/02/17 04:33:09;;;;;;;;;;;10.90;92.90;;;;;;5076654;28;19998;-76
2022/02/17 04:35:35;;;;;;;;;;;10.90;93.00;;;;;;5077330;28;19942;-76
2022/02/17 04:38:01;;;;;;;;;;;10.80;93.00;;;;;;5071019;28;19912;-76
2022/02/17 04:43:11;;;;;;;;;;;10.70;93.10;;;;;;5077854;28;19935;-76
2022/02/17 04:45:37;;;;;;;;;;;10.70;93.20;;;;;;5073945;28;20299;-76
2022/02/17 04:48:03;;;;;;;;;;;10.70;93.20;;;;;;5077568;28;19923;-76
2022/02/17 04:50:29;;;;;;;;;;;10.60;93.00;;;;;;5077726;28;19912;-76
2022/02/17 04:52:54;;;;;;;;;;;10.60;92.70;;;;;;5077085;28;19919;-76
2022/02/17 04:55:20;;;;;;;;;;;10.60;92.60;;;;;;5071867;28;19924;-76
2022/02/17 04:57:45;;;;;;;;;;;10.60;92.80;;;;;;5077380;28;20427;-76
2022/02/17 05:00:11;;;;;;;;;;;10.50;92.50;;;;;;5076342;28;20383;-76
2022/02/17 05:02:37;;;;;;;;;;;10.50;92.50;;;;;;5077324;28;20326;-76
2022/02/17 05:05:04;;;;;;;;;;;10.50;92.50;;;;;;5076792;28;19917;-76
2022/02/17 05:07:30;;;;;;;;;;;10.40;92.50;;;;;;5076961;28;19916;-76
2022/02/17 05:09:55;;;;;;;;;;;10.40;92.20;;;;;;5076903;28;20404;-76
2022/02/17 05:12:21;;;;;;;;;;;10.30;92.40;;;;;;5069638;28;20407;-76
2022/02/17 05:14:47;;;;;;;;;;;10.30;92.60;;;;;;5065293;28;19909;-76
2022/02/17 05:17:13;;;;;;;;;;;10.30;92.70;;;;;;5077450;28;19923;-76
2022/02/17 05:19:38;;;;;;;;;;;10.30;92.70;;;;;;5077415;28;20372;-76
2022/02/17 05:22:04;;;;;;;;;;;10.30;92.70;;;;;;5077098;28;19996;-76
2022/02/17 05:24:30;;;;;;;;;;;10.20;92.70;;;;;;5076821;28;20616;-76
2022/02/17 05:26:55;;;;;;;;;;;10.10;92.60;;;;;;5077116;28;19958;-76
2022/02/17 05:29:21;;;;;;;;;;;10.10;92.60;;;;;;5076481;28;19917;-76
2022/02/17 05:31:47;;;;;;;;;;;10.10;92.60;;;;;;5067441;28;19947;-76
2022/02/17 05:34:13;;;;;;;;;;;10.00;92.60;;;;;;5077400;28;19947;-76
2022/02/17 05:36:40;;;;;;;;;;;10.00;92.70;;;;;;5076359;28;19928;-76
2022/02/17 05:39:06;;;;;;;;;;;9.90;92.80;;;;;;5076095;28;19944;-76
2022/02/17 05:41:32;;;;;;;;;;;9.90;92.70;;;;;;5072314;28;19919;-76
2022/02/17 05:43:57;;;;;;;;;;;9.80;92.60;;;;;;5071761;28;19909;-76
2022/02/17 05:46:23;;;;;;;;;;;9.80;92.50;;;;;;5073193;28;19921;-76
2022/02/17 05:48:49;;;;;;;;;;;9.80;92.50;;;;;;5077044;28;19962;-76
2022/02/17 05:51:17;;;;;;;;;;;9.70;92.50;;;;;;5076786;28;19960;-76
2022/02/17 05:53:43;;;;;;;;;;;9.70;92.70;;;;;;5064477;28;19908;-76
2022/02/17 05:56:09;;;;;;;;;;;9.70;92.80;;;;;;5076217;28;19917;-76
2022/02/17 05:58:35;;;;;;;;;;;9.60;92.70;;;;;;5072557;28;19919;-77
2022/02/17 06:01:04;;;;;;;;;;;9.60;92.70;;;;;;5076578;28;21683;-76
2022/02/17 06:03:29;;;;;;;;;;;9.60;92.70;;;;;;5076781;28;19989;-76
2022/02/17 06:05:55;;;;;;;;;;;9.50;92.80;;;;;;5076107;28;19912;-76
2022/02/17 06:08:23;;;;;;;;;;;9.50;92.90;;;;;;5075703;28;19912;-76
2022/02/17 06:10:49;;;;;;;;;;;9.50;93.00;;;;;;5076935;28;19912;-76
2022/02/17 06:13:15;;;;;;;;;;;9.40;93.00;;;;;;5076742;28;19919;-76
2022/02/17 06:15:41;;;;;;;;;;;9.40;93.10;;;;;;5073008;28;19923;-76
2022/02/17 06:18:07;;;;;;;;;;;9.40;93.20;;;;;;5071203;28;20272;-77
2022/02/17 06:20:33;;;;;;;;;;;9.40;93.20;;;;;;5074255;28;19916;-77
2022/02/17 06:22:59;;;;;;;;;;;9.30;93.30;;;;;;5074724;28;19919;-76
2022/02/17 06:25:25;;;;;;;;;;;9.30;93.30;;;;;;5076300;28;20405;-73
2022/02/17 06:27:51;;;;;;;;;;;9.30;93.40;;;;;;5068227;28;19912;-76
2022/02/17 06:30:17;;;;;;;;;;;9.40;93.40;;;;;;5071460;28;20272;-74
2022/02/17 06:32:53;;;;;;;;;;;9.40;93.50;;;;;;5076479;28;20450;-77
2022/02/17 06:35:20;;;;;;;;;;;9.40;93.50;;;;;;5077926;28;19917;-75
2022/02/17 06:37:46;;;;;;;;;;;9.40;93.50;;;;;;5070598;28;19962;-78
2022/02/17 06:40:13;;;;;;;;;;;9.40;93.60;;;;;;5079697;28;19976;-75
2022/02/17 06:42:38;;;;;;;;;;;9.40;93.60;;;;;;5080564;28;19947;-76
2022/02/17 06:45:04;;;;;;;;;;;9.50;93.70;;;;;;5077617;28;19924;-73
2022/02/17 06:47:30;;;;;;;;;;;9.50;93.70;;;;;;5080157;28;19921;-75
2022/02/17 06:49:56;;;;;;;;;;;9.50;93.80;;;;;;5077548;28;19908;-76
2022/02/17 06:52:22;;;;;;;;;;;9.50;93.80;;;;;;5077543;28;19940;-78
2022/02/17 06:54:48;;;;;;;;;;;9.50;93.90;;;;;;5073853;28;19943;-78
2022/02/17 06:57:20;;;;;;;;;;;9.50;94.00;;;;;;5076205;28;19916;-78
2022/02/17 06:59:46;;;;;;;;;;;9.50;94.00;;;;;;5079464;28;19966;-79
2022/02/17 07:02:12;;;;;;;;;;;9.50;94.00;;;;;;5069009;28;19908;-79
2022/02/17 07:04:38;;;;;;;;;;;9.60;93.90;;;;;;5078942;28;20326;-80
2022/02/17 07:07:03;;;;;;;;;;;9.60;93.90;;;;;;5077428;28;19909;-79
2022/02/17 07:09:29;;;;;;;;;;;9.60;93.90;;;;;;5079177;28;19912;-79
2022/02/17 07:11:55;;;;;;;;;;;9.60;93.90;;;;;;5079466;28;19910;-79
2022/02/17 07:14:23;;;;;;;;;;;9.60;93.90;;;;;;5079614;28;20383;-79
2022/02/17 07:16:57;;;;;;;;;;;9.60;93.90;;;;;;5076972;28;19938;-79
2022/02/17 07:19:23;;;;;;;;;;;9.70;93.90;;;;;;5078938;28;20438;-79
2022/02/17 07:21:52;;;;;;;;;;;9.60;93.90;;;;;;5077078;28;19912;-79
2022/02/17 07:24:19;;;;;;;;;;;9.70;94.00;;;;;;5078154;28;19916;-79
2022/02/17 07:26:44;;;;;;;;;;;9.60;93.80;;;;;;5067588;28;19909;-78
2022/02/17 07:29:10;;;;;;;;;;;9.70;93.90;;;;;;5072908;28;19979;-80
2022/02/17 07:31:36;;;;;;;;;;;9.70;93.90;;;;;;5079491;28;20359;-79
2022/02/17 07:34:02;;;;;;;;;;;9.70;93.80;;;;;;5077634;28;20291;-79
2022/02/17 07:36:28;;;;;;;;;;;9.80;93.70;;;;;;5078865;28;19917;-79
2022/02/17 07:38:53;;;;;;;;;;;9.80;93.70;;;;;;5076047;28;19919;-78
2022/02/17 07:41:19;;;;;;;;;;;9.80;93.60;;;;;;5071174;28;19923;-78
2022/02/17 07:43:44;;;;;;;;;;;9.80;93.60;;;;;;5067874;28;19967;-78
2022/02/17 07:46:10;;;;;;;;;;;9.80;93.70;;;;;;5075148;28;19944;-78
2022/02/17 07:48:37;;;;;;;;;;;9.90;93.70;;;;;;5077228;28;20339;-77
2022/02/17 07:51:03;;;;;;;;;;;9.90;93.70;;;;;;5077292;28;19978;-78
2022/02/17 07:53:29;;;;;;;;;;;9.90;93.60;;;;;;5078663;28;19909;-78
2022/02/17 07:55:54;;;;;;;;;;;10.00;93.50;;;;;;5078418;28;20349;-77
2022/02/17 07:58:20;;;;;;;;;;;10.00;93.40;;;;;;5075308;28;19920;-78
2022/02/17 08:00:46;;;;;;;;;;;10.00;93.40;;;;;;5078244;28;19916;-78
2022/02/17 08:03:17;;;;;;;;;;;10.00;93.50;;;;;;5071551;28;19928;-77
2022/02/17 08:05:43;;;;;;;;;;;10.00;93.60;;;;;;5063380;28;20287;-77
2022/02/17 08:08:11;;;;;;;;;;;10.10;93.50;;;;;;5062588;28;19912;-77
2022/02/17 08:10:36;;;;;;;;;;;10.20;93.60;;;;;;5077123;28;19912;-79
2022/02/17 08:13:03;;;;;;;;;;;10.30;93.30;;;;;;5073134;28;19920;-77
2022/02/17 08:15:28;;;;;;;;;;;10.40;93.20;;;;;;5071209;28;19913;-77
2022/02/17 08:17:54;;;;;;;;;;;10.50;93.10;;;;;;5063362;28;20000;-77
2022/02/17 08:20:20;;;;;;;;;;;10.70;92.70;;;;;;5068610;28;19916;-76
2022/02/17 08:22:53;;;;;;;;;;;10.70;92.50;;;;;;5063496;28;19912;-76
2022/02/17 08:25:22;;;;;;;;;;;10.80;92.40;;;;;;5065775;28;20380;-76
2022/02/17 08:27:48;;;;;;;;;;;10.80;92.40;;;;;;5065194;28;19913;-77
2022/02/17 08:30:14;;;;;;;;;;;10.80;92.20;;;;;;5068198;28;19912;-78
2022/02/17 08:32:41;;;;;;;;;;;10.80;92.10;;;;;;5067696;28;19991;-75
2022/02/17 08:35:07;;;;;;;;;;;10.80;92.10;;;;;;5072789;28;19912;-76
2022/02/17 08:37:33;;;;;;;;;;;10.80;92.20;;;;;;5070043;28;19920;-76
2022/02/17 08:39:59;;;;;;;;;;;10.80;92.10;;;;;;5065949;28;19919;-76
2022/02/17 08:42:24;;;;;;;;;;;10.80;92.30;;;;;;5074979;28;19916;-76
2022/02/17 08:44:50;;;;;;;;;;;10.90;92.00;;;;;;5070549;28;19959;-76
2022/02/17 08:47:17;;;;;;;;;;;11.00;91.80;;;;;;5076755;28;19955;-76
2022/02/17 08:49:43;;;;;;;;;;;11.00;91.90;;;;;;5067990;28;19984;-76
2022/02/17 08:52:09;;;;;;;;;;;11.10;92.00;;;;;;5062113;28;19913;-75
2022/02/17 08:54:35;;;;;;;;;;;11.10;91.90;;;;;;5068148;28;19913;-75
2022/02/17 08:57:02;;;;;;;;;;;11.20;91.80;;;;;;5071518;28;19917;-76
2022/02/17 08:59:27;;;;;;;;;;;11.30;91.70;;;;;;5069595;28;19912;-76
2022/02/17 09:01:53;;;;;;;;;;;11.30;91.70;;;;;;5066387;28;20434;-77
2022/02/17 09:04:19;;;;;;;;;;;11.40;91.90;;;;;;5064971;28;19912;-76
2022/02/17 09:06:48;;;;;;;;;;;11.50;91.40;;;;;;5065950;28;20333;-78
2022/02/17 09:09:14;;;;;;;;;;;11.60;91.30;;;;;;5069688;28;20007;-76
2022/02/17 09:11:39;;;;;;;;;;;11.80;91.20;;;;;;5070539;28;19923;-75
2022/02/17 09:14:05;;;;;;;;;;;12.30;90.70;;;;;;5059269;28;19912;-75
2022/02/17 09:16:31;;;;;;;;;;;12.90;88.50;;;;;;5067012;28;19961;-75
2022/02/17 09:18:56;;;;;;;;;;;13.50;87.00;;;;;;5071769;28;19908;-75
2022/02/17 09:21:22;;;;;;;;;;;14.00;87.40;;;;;;5075912;28;19959;-75
2022/02/17 09:23:48;;;;;;;;;;;14.50;84.40;;;;;;5067804;28;19913;-76
2022/02/17 09:26:15;;;;;;;;;;;15.00;80.90;;;;;;5065035;28;19956;-75
2022/02/17 09:28:41;;;;;;;;;;;15.30;81.00;;;;;;5063186;28;20010;-76
2022/02/17 09:31:08;;;;;;;;;;;15.60;78.70;;;;;;5070520;28;19919;-76
2022/02/17 09:33:34;;;;;;;;;;;15.90;76.00;;;;;;5071173;28;19917;-76
2022/02/17 09:35:59;;;;;;;;;;;16.10;77.40;;;;;;5075837;28;19916;-76
2022/02/17 09:38:25;;;;;;;;;;;16.40;76.10;;;;;;5076283;28;20447;-76
2022/02/17 09:40:51;;;;;;;;;;;16.80;77.70;;;;;;5063760;28;19991;-76
2022/02/17 09:43:17;;;;;;;;;;;17.20;77.00;;;;;;5060977;28;19942;-76
2022/02/17 09:45:44;;;;;;;;;;;17.40;72.40;;;;;;5066035;28;19924;-77
2022/02/17 09:48:11;;;;;;;;;;;17.70;72.70;;;;;;5060600;28;19912;-77
2022/02/17 09:50:37;;;;;;;;;;;17.90;70.20;;;;;;5070151;28;19971;-77
2022/02/17 09:53:03;;;;;;;;;;;18.30;70.50;;;;;;5071965;28;20403;-77
2022/02/17 09:55:29;;;;;;;;;;;18.60;71.50;;;;;;5070003;28;20272;-77
2022/02/17 09:57:55;;;;;;;;;;;18.80;69.30;;;;;;5062724;28;20303;-77
2022/02/17 10:00:20;;;;;;;;;;;18.90;68.00;;;;;;5062269;28;20380;-77
2022/02/17 10:02:46;;;;;;;;;;;19.00;67.10;;;;;;5067992;28;19912;-78
2022/02/17 10:05:12;;;;;;;;;;;19.00;68.40;;;;;;5069197;28;19913;-78
2022/02/17 10:07:42;;;;;;;;;;;19.20;67.70;;;;;;5067083;28;19921;-77
2022/02/17 10:10:10;;;;;;;;;;;19.50;66.30;;;;;;5073413;28;19985;-77
2022/02/17 10:12:50;;;;;;;;;;;19.60;70.60;;;;;;5070336;28;19919;-77
2022/02/17 10:15:24;;;;;;;;;;;19.90;69.90;;;;;;5076555;28;19912;-77
2022/02/17 10:17:59;;;;;;;;;;;20.30;69.50;;;;;;5065143;28;19928;-76
2022/02/17 10:20:26;;;;;;;;;;;20.60;63.80;;;;;;5063930;28;19918;-76
2022/02/17 10:22:52;;;;;;;;;;;21.00;63.70;;;;;;5078948;28;19913;-76
2022/02/17 10:25:20;;;;;;;;;;;21.20;62.20;;;;;;5062854;28;20284;-76
2022/02/17 10:27:45;;;;;;;;;;;21.20;63.50;;;;;;5067387;28;20291;-76
2022/02/17 10:30:13;;;;;;;;;;;20.80;61.40;;;;;;5071525;28;19920;-76
2022/02/17 10:32:51;;;;;;;;;;;20.40;63.20;;;;;;5066930;28;19928;-76
2022/02/17 10:35:18;;;;;;;;;;;20.10;64.00;;;;;;5070093;28;20302;-76
2022/02/17 10:37:45;;;;;;;;;;;19.60;63.10;;;;;;5076462;28;19917;-76
2022/02/17 10:40:16;;;;;;;;;;;19.30;66.10;;;;;;5066517;28;19916;-76
2022/02/17 10:42:42;;;;;;;;;;;19.00;63.90;;;;;;5070053;28;19912;-76
2022/02/17 10:45:21;;;;;;;;;;;19.00;65.90;;;;;;5075560;28;20402;-76
2022/02/17 10:47:46;;;;;;;;;;;19.30;66.10;;;;;;5075771;28;19913;-76
2022/02/17 10:50:17;;;;;;;;;;;19.80;62.70;;;;;;5075767;28;20409;-73
2022/02/17 10:52:43;;;;;;;;;;;20.20;63.90;;;;;;5068049;28;19921;-72
2022/02/17 10:55:13;;;;;;;;;;;20.70;62.90;;;;;;5067166;28;19915;-76
2022/02/17 10:57:39;;;;;;;;;;;21.00;61.60;;;;;;5067721;28;19923;-75
2022/02/17 11:00:31;;;;;;;;;;;21.30;58.20;;;;;;5069343;28;19919;-76
2022/02/17 11:02:57;;;;;;;;;;;21.70;58.80;;;;;;5070808;28;20382;-76
2022/02/17 11:05:22;;;;;;;;;;;22.00;60.10;;;;;;5068427;28;19933;-76
2022/02/17 11:07:49;;;;;;;;;;;22.20;58.40;;;;;;5079982;28;19913;-76
2022/02/17 11:10:15;;;;;;;;;;;22.60;60.40;;;;;;5079499;28;19915;-76
2022/02/17 11:12:41;;;;;;;;;;;22.70;57.70;;;;;;5076603;28;19912;-75
2022/02/17 11:15:07;;;;;;;;;;;22.80;54.90;;;;;;5078715;28;19916;-76
2022/02/17 11:17:34;;;;;;;;;;;23.00;55.90;;;;;;5078435;28;19924;-76
2022/02/17 11:20:06;;;;;;;;;;;23.00;58.10;;;;;;5078572;28;19909;-76
2022/02/17 11:22:32;;;;;;;;;;;23.30;56.90;;;;;;5074746;28;19915;-75
2022/02/17 11:24:58;;;;;;;;;;;23.40;58.20;;;;;;5077484;28;20350;-74
2022/02/17 11:27:23;;;;;;;;;;;23.60;59.20;;;;;;5078112;28;20401;-73
2022/02/17 11:29:49;;;;;;;;;;;23.90;57.90;;;;;;5072246;28;19965;-73
2022/02/17 11:32:19;;;;;;;;;;;24.00;53.70;;;;;;5077784;28;19909;-72
2022/02/17 11:34:45;;;;;;;;;;;23.90;50.80;;;;;;5079373;28;19916;-73
2022/02/17 11:37:20;;;;;;;;;;;24.00;53.10;;;;;;5065975;28;20451;-73
2022/02/17 11:40:03;;;;;;;;;;;23.90;53.90;;;;;;5073638;28;19909;-73
2022/02/17 11:42:36;;;;;;;;;;;23.90;54.40;;;;;;5079665;28;19909;-73
2022/02/17 11:45:09;;;;;;;;;;;24.10;56.20;;;;;;5079101;28;19920;-73
2022/02/17 11:47:50;;;;;;;;;;;24.20;55.40;;;;;;5079283;28;19947;-73
2022/02/17 11:50:45;;;;;;;;;;;24.40;56.00;;;;;;5066768;28;20003;-76
2022/02/17 11:53:30;;;;;;;;;;;24.50;55.20;;;;;;5064136;28;19989;-74
2022/02/17 11:56:05;;;;;;;;;;;24.60;54.50;;;;;;5078866;28;19917;-73
2022/02/17 11:58:40;;;;;;;;;;;24.50;51.30;;;;;;5078256;28;19912;-74
2022/02/17 12:01:31;;;;;;;;;;;24.40;51.90;;;;;;5068053;28;19912;-73
2022/02/17 12:03:58;;;;;;;;;;;24.50;56.20;;;;;;5077405;28;19995;-73
2022/02/17 12:06:34;;;;;;;;;;;24.40;54.70;;;;;;5076301;28;19916;-73
2022/02/17 12:09:00;;;;;;;;;;;24.20;50.80;;;;;;5074060;28;20394;-76
2022/02/17 12:11:31;;;;;;;;;;;23.90;52.50;;;;;;5072905;28;20041;-77
2022/02/17 12:14:00;;;;;;;;;;;23.70;51.50;;;;;;5075779;28;19936;-77
2022/02/17 12:16:32;;;;;;;;;;;23.30;51.60;;;;;;5078479;28;19923;-72
2022/02/17 12:19:06;;;;;;;;;;;23.10;54.00;;;;;;5076888;28;19913;-72
2022/02/17 12:21:35;;;;;;;;;;;22.90;52.10;;;;;;5077252;28;19919;-72
2022/02/17 12:24:00;;;;;;;;;;;22.50;50.60;;;;;;5078184;28;20031;-73
2022/02/17 12:26:39;;;;;;;;;;;22.10;50.40;;;;;;5077595;28;19960;-72
2022/02/17 12:29:21;;;;;;;;;;;22.20;53.10;;;;;;5078258;28;20376;-74
2022/02/17 12:31:47;;;;;;;;;;;22.00;54.20;;;;;;5063905;28;19915;-71
2022/02/17 12:34:13;;;;;;;;;;;22.00;56.60;;;;;;5075684;28;19925;-76
2022/02/17 12:36:38;;;;;;;;;;;21.80;54.10;;;;;;5073408;28;19924;-77
2022/02/17 12:39:05;;;;;;;;;;;21.40;53.80;;;;;;5075436;28;19912;-72
2022/02/17 12:41:31;;;;;;;;;;;21.10;55.20;;;;;;5077710;28;19930;-76
2022/02/17 12:43:56;;;;;;;;;;;20.90;54.90;;;;;;5077717;28;20345;-79
2022/02/17 12:46:22;;;;;;;;;;;20.70;57.60;;;;;;5076586;28;19973;-80
2022/02/17 12:48:48;;;;;;;;;;;20.50;58.50;;;;;;5076780;28;19913;-80
2022/02/17 12:51:26;;;;;;;;;;;20.20;55.60;;;;;;5077700;28;19908;-79
2022/02/17 12:53:56;;;;;;;;;;;20.00;57.40;;;;;;5074255;28;19909;-79
2022/02/17 12:56:26;;;;;;;;;;;19.70;56.20;;;;;;5077665;28;19916;-79
2022/02/17 12:58:52;;;;;;;;;;;19.60;57.90;;;;;;5077510;28;19919;-78
2022/02/17 13:01:21;;;;;;;;;;;19.50;60.50;;;;;;5076624;28;19909;-79
2022/02/17 13:03:48;;;;;;;;;;;19.50;59.30;;;;;;5076217;28;19955;-81
2022/02/17 13:06:25;;;;;;;;;;;19.30;57.00;;;;;;5076356;28;19912;-83
2022/02/17 13:08:58;;;;;;;;;;;19.20;56.70;;;;;;5064220;28;19991;-80
2022/02/17 13:11:25;;;;;;;;;;;18.90;56.70;;;;;;5077386;28;19966;-81
2022/02/17 13:14:01;;;;;;;;;;;18.90;58.30;;;;;;5076054;28;19909;-81
2022/02/17 13:16:27;;;;;;;;;;;18.90;57.60;;;;;;5077420;28;19912;-84
2022/02/17 13:18:52;;;;;;;;;;;18.90;57.90;;;;;;5076759;28;19908;-83
2022/02/17 13:21:20;;;;;;;;;;;18.80;57.70;;;;;;5077163;28;20054;-81
2022/02/17 13:23:49;;;;;;;;;;;18.80;57.70;;;;;;5076067;28;19916;-82
2022/02/17 13:26:28;;;;;;;;;;;18.80;56.80;;;;;;5077327;28;19936;-81
2022/02/17 13:28:54;;;;;;;;;;;18.90;60.30;;;;;;5077754;28;19970;-81
2022/02/17 13:31:21;;;;;;;;;;;19.00;58.80;;;;;;5064047;28;19909;-81
2022/02/17 13:33:47;;;;;;;;;;;19.00;58.80;;;;;;5075252;28;19909;-82
2022/02/17 13:36:25;;;;;;;;;;;19.00;57.30;;;;;;5076229;28;19912;-82
2022/02/17 13:39:04;;;;;;;;;;;18.90;57.10;;;;;;5075925;28;20496;-82
2022/02/17 13:41:30;;;;;;;;;;;19.10;59.80;;;;;;5067830;28;19966;-82
2022/02/17 13:43:58;;;;;;;;;;;19.30;60.90;;;;;;5078684;28;19909;-82
2022/02/17 13:46:24;;;;;;;;;;;19.30;58.70;;;;;;5081513;28;19920;-82
2022/02/17 13:48:50;;;;;;;;;;;19.20;57.00;;;;;;5080620;28;19955;-82
2022/02/17 13:51:17;;;;;;;;;;;19.10;58.70;;;;;;5067216;28;20295;-81
2022/02/17 13:53:44;;;;;;;;;;;19.00;61.30;;;;;;5079328;28;19951;-82
2022/02/17 13:56:12;;;;;;;;;;;18.80;59.80;;;;;;5081605;28;20390;-82
2022/02/17 13:58:38;;;;;;;;;;;18.60;58.10;;;;;;5081288;28;19909;-82
2022/02/17 14:01:04;;;;;;;;;;;18.50;58.90;;;;;;5079894;28;19916;-82
2022/02/17 14:03:33;;;;;;;;;;;18.50;61.30;;;;;;5081312;28;19915;-82
2022/02/17 14:06:18;;;;;;;;;;;18.50;59.90;;;;;;5081044;28;19944;-82
2022/02/17 14:08:45;;;;;;;;;;;18.40;60.20;;;;;;5080951;28;19912;-82
2022/02/17 14:11:10;;;;;;;;;;;18.40;59.80;;;;;;5081054;28;19954;-82
2022/02/17 14:13:37;;;;;;;;;;;18.30;59.40;;;;;;5077897;28;19913;-82
2022/02/17 14:16:03;;;;;;;;;;;18.20;59.20;;;;;;5081125;28;19918;-82
2022/02/17 14:18:28;;;;;;;;;;;18.20;60.00;;;;;;5080976;28;19908;-82
2022/02/17 14:20:54;;;;;;;;;;;18.10;59.60;;;;;;5079383;28;19913;-81